Time;durP1;ratioP1;P1;durP2;ratioP2;P2;SDS_P1;SDS_P2;PMS_P1;PMS_P2;Temp;Humidity;BMP_temperature;BMP_pressure;BME280_temperature;BME280_humidity;BME280_pressure;Samples;Min_cycle;Max_cycle;Signal;HPM_P1;HPM_P2
2021/04/30 00:02:15;;;;;;;96.83;53.90;;;7.70;98.00;;;;;;5023762;28;20515;-70
2021/04/30 00:04:41;;;;;;;99.93;53.60;;;7.70;98.00;;;;;;5017468;28;20069;-70
2021/04/30 00:07:09;;;;;;;104.63;53.20;;;7.70;98.00;;;;;;5020136;28;20079;-70
2021/04/30 00:09:36;;;;;;;91.03;51.37;;;7.70;98.00;;;;;;5014432;28;20037;-70
2021/04/30 00:12:02;;;;;;;84.00;51.20;;;7.70;98.00;;;;;;5012102;28;20042;-70
2021/04/30 00:14:28;;;;;;;98.40;52.13;;;7.70;98.00;;;;;;5002403;28;20057;-70
2021/04/30 00:16:54;;;;;;;68.90;47.67;;;7.70;98.00;;;;;;5016657;28;20400;-70
2021/04/30 00:19:20;;;;;;;89.40;50.20;;;7.70;98.00;;;;;;5006521;28;20046;-70
2021/04/30 00:21:46;;;;;;;92.10;50.43;;;7.70;98.00;;;;;;5021289;28;20048;-70
2021/04/30 00:24:14;;;;;;;102.80;50.63;;;7.60;98.00;;;;;;5027559;28;20550;-72
2021/04/30 00:26:40;;;;;;;94.77;50.27;;;7.50;98.00;;;;;;5019070;28;20887;-72
2021/04/30 00:29:07;;;;;;;89.93;50.77;;;7.60;98.00;;;;;;5008988;28;20100;-72
2021/04/30 00:31:33;;;;;;;67.83;44.63;;;7.60;98.00;;;;;;5015899;28;20259;-72
2021/04/30 00:33:59;;;;;;;87.57;49.07;;;7.60;97.90;;;;;;5035396;28;20041;-72
2021/04/30 00:36:26;;;;;;;91.73;50.73;;;7.50;97.90;;;;;;5019183;28;20041;-72
2021/04/30 00:38:52;;;;;;;71.77;45.83;;;7.50;98.00;;;;;;5006901;28;20500;-72
2021/04/30 00:41:18;;;;;;;72.90;45.17;;;7.40;97.90;;;;;;5000012;28;20399;-72
2021/04/30 00:43:47;;;;;;;88.93;49.40;;;7.40;97.90;;;;;;5002768;28;20632;-72
2021/04/30 00:46:13;;;;;;;102.73;47.70;;;7.40;98.00;;;;;;5018175;28;20361;-72
2021/04/30 00:48:40;;;;;;;73.57;44.87;;;7.30;98.00;;;;;;5016112;28;20156;-72
2021/04/30 00:51:09;;;;;;;91.67;48.97;;;7.30;98.00;;;;;;5020032;28;20245;-72
2021/04/30 00:53:35;;;;;;;68.57;42.57;;;7.30;98.00;;;;;;5025630;28;20488;-72
2021/04/30 00:56:00;;;;;;;91.73;47.13;;;7.30;98.00;;;;;;5026688;28;20045;-73
2021/04/30 00:58:26;;;;;;;95.23;47.80;;;7.20;98.00;;;;;;5009957;28;20476;-71
2021/04/30 01:00:53;;;;;;;82.47;47.53;;;7.20;98.00;;;;;;5007196;28;20049;-72
2021/04/30 01:03:19;;;;;;;113.67;51.00;;;7.20;98.00;;;;;;5026679;28;20042;-72
2021/04/30 01:05:47;;;;;;;87.37;47.53;;;7.20;98.00;;;;;;4999694;28;20389;-72
2021/04/30 01:08:13;;;;;;;99.40;48.33;;;7.20;98.00;;;;;;4995700;28;20033;-72
2021/04/30 01:10:39;;;;;;;79.20;47.40;;;7.20;98.00;;;;;;5016928;28;20045;-70
2021/04/30 01:13:05;;;;;;;99.53;48.73;;;7.20;98.00;;;;;;4996368;28;20041;-70
2021/04/30 01:15:31;;;;;;;85.30;48.40;;;7.20;98.00;;;;;;5023850;28;20038;-70
2021/04/30 01:17:59;;;;;;;82.50;48.50;;;7.20;98.10;;;;;;5035543;28;20049;-70
2021/04/30 01:20:24;;;;;;;91.67;49.33;;;7.20;98.10;;;;;;5045415;28;20519;-70
2021/04/30 01:22:53;;;;;;;86.70;47.90;;;7.20;98.10;;;;;;4989981;28;20068;-70
2021/04/30 01:25:25;;;;;;;83.47;49.53;;;7.20;98.10;;;;;;5014946;28;20112;-72
2021/04/30 01:27:52;;;;;;;82.77;48.60;;;7.20;98.10;;;;;;4994719;28;20041;-70
2021/04/30 01:30:24;;;;;;;86.75;48.40;;;7.20;98.20;;;;;;5001018;28;20485;-70
2021/04/30 01:32:50;;;;;;;81.63;46.63;;;7.20;98.20;;;;;;5025613;28;20076;-72
2021/04/30 01:35:22;;;;;;;65.97;43.00;;;7.20;98.20;;;;;;5044406;28;20392;-72
2021/04/30 01:37:49;;;;;;;86.67;48.47;;;7.20;98.20;;;;;;5024073;28;20076;-72
2021/04/30 01:40:21;;;;;;;70.40;46.33;;;7.30;98.20;;;;;;5022295;28;20425;-72
2021/04/30 01:42:59;;;;;;;77.60;45.60;;;7.30;98.30;;;;;;5039460;28;20045;-72
2021/04/30 01:45:25;;;;;;;63.47;41.30;;;7.30;98.30;;;;;;5031439;28;20041;-72
2021/04/30 01:47:53;;;;;;;63.17;43.07;;;7.30;98.30;;;;;;5026844;28;20041;-72
2021/04/30 01:50:22;;;;;;;68.07;42.97;;;7.30;98.30;;;;;;5021246;28;20404;-72
2021/04/30 01:52:48;;;;;;;63.23;42.83;;;7.30;98.30;;;;;;5024559;28;20492;-72
2021/04/30 01:55:14;;;;;;;64.63;44.20;;;7.30;98.30;;;;;;5029503;28;20117;-70
2021/04/30 01:57:49;;;;;;;67.53;42.70;;;7.30;98.30;;;;;;5013802;28;20112;-70
2021/04/30 02:00:20;;;;;;;69.53;43.10;;;7.30;98.30;;;;;;5016711;28;20038;-70
2021/04/30 02:02:50;;;;;;;62.60;43.47;;;7.30;98.20;;;;;;5019661;28;20041;-70
2021/04/30 02:05:18;;;;;;;59.93;42.80;;;7.30;98.20;;;;;;5010862;28;20109;-71
2021/04/30 02:07:43;;;;;;;64.67;44.43;;;7.30;98.20;;;;;;5009742;28;20124;-70
2021/04/30 02:10:16;;;;;;;57.13;40.10;;;7.30;98.10;;;;;;5009838;28;20485;-71
2021/04/30 02:12:43;;;;;;;65.27;44.13;;;7.30;98.10;;;;;;5010656;28;20037;-70
2021/04/30 02:15:10;;;;;;;53.80;39.50;;;7.30;98.10;;;;;;5021486;28;20072;-70
2021/04/30 02:17:37;;;;;;;60.07;41.60;;;7.30;98.10;;;;;;5020307;28;20042;-70
2021/04/30 02:20:04;;;;;;;65.00;42.53;;;7.40;98.10;;;;;;5027262;28;20048;-70
2021/04/30 02:22:30;;;;;;;58.13;41.17;;;7.30;98.10;;;;;;5024770;28;20183;-71
2021/04/30 02:24:56;;;;;;;64.17;42.07;;;7.30;98.10;;;;;;5042633;28;20744;-70
2021/04/30 02:27:22;;;;;;;51.83;36.13;;;7.40;98.10;;;;;;5015697;28;20489;-70
2021/04/30 02:29:48;;;;;;;60.60;41.60;;;7.40;98.10;;;;;;5004506;28;20050;-70
2021/04/30 02:32:14;;;;;;;48.03;37.67;;;7.30;98.10;;;;;;5015180;28;20312;-70
2021/04/30 02:34:40;;;;;;;57.00;40.97;;;7.30;98.10;;;;;;5004345;28;20152;-70
2021/04/30 02:37:09;;;;;;;55.93;39.03;;;7.40;98.20;;;;;;5041609;28;20105;-70
2021/04/30 02:39:35;;;;;;;57.43;40.53;;;7.40;98.20;;;;;;5024216;28;20253;-72
2021/04/30 02:42:01;;;;;;;50.63;36.60;;;7.30;98.20;;;;;;5002280;28;20041;-73
2021/04/30 02:44:26;;;;;;;56.33;40.03;;;7.30;98.20;;;;;;5034625;28;20101;-72
2021/04/30 02:46:52;;;;;;;41.00;32.90;;;7.30;98.10;;;;;;5020676;28;20048;-72
2021/04/30 02:49:26;;;;;;;40.90;30.60;;;7.30;98.10;;;;;;5020977;28;20512;-72
2021/04/30 02:51:53;;;;;;;45.07;34.00;;;7.30;98.10;;;;;;5010605;28;20045;-72
2021/04/30 02:54:19;;;;;;;43.47;31.90;;;7.20;98.10;;;;;;5022559;28;20496;-72
2021/04/30 02:56:45;;;;;;;41.27;30.53;;;7.30;98.20;;;;;;5028401;28;20051;-72
2021/04/30 02:59:11;;;;;;;44.67;33.20;;;7.30;98.10;;;;;;5009683;28;20054;-72
2021/04/30 03:01:37;;;;;;;44.43;33.17;;;7.20;98.10;;;;;;5018307;28;20056;-72
2021/04/30 03:04:03;;;;;;;43.10;32.23;;;7.20;98.10;;;;;;5026949;28;20088;-72
2021/04/30 03:06:29;;;;;;;41.27;32.27;;;7.20;98.10;;;;;;5000618;28;20558;-72
2021/04/30 03:08:56;;;;;;;41.90;33.50;;;7.10;98.00;;;;;;5002306;28;20066;-72
2021/04/30 03:11:21;;;;;;;43.70;35.40;;;7.20;98.10;;;;;;5016365;28;20030;-72
2021/04/30 03:13:47;;;;;;;45.50;34.73;;;7.20;98.10;;;;;;4993632;28;20045;-72
2021/04/30 03:16:13;;;;;;;53.47;36.93;;;7.10;98.10;;;;;;5021098;28;20037;-70
2021/04/30 03:18:39;;;;;;;52.33;37.27;;;7.10;98.10;;;;;;5020003;28;20072;-71
2021/04/30 03:21:05;;;;;;;50.23;34.43;;;7.10;98.10;;;;;;5027589;28;20029;-72
2021/04/30 03:23:31;;;;;;;51.27;35.87;;;7.10;98.10;;;;;;5008874;28;20059;-72
2021/04/30 03:25:57;;;;;;;55.50;37.37;;;7.10;98.10;;;;;;4990317;28;20072;-72
2021/04/30 03:28:23;;;;;;;49.80;36.47;;;7.10;98.00;;;;;;5016892;28;20060;-72
2021/04/30 03:30:49;;;;;;;52.80;36.93;;;7.10;97.90;;;;;;5004018;28;20037;-72
2021/04/30 03:33:21;;;;;;;57.50;38.23;;;7.10;97.90;;;;;;5000807;28;20057;-72
2021/04/30 03:35:48;;;;;;;51.50;37.50;;;7.00;97.80;;;;;;5014769;28;20034;-72
2021/04/30 03:38:13;;;;;;;56.07;38.00;;;7.10;97.90;;;;;;5016641;28;20099;-72
2021/04/30 03:40:39;;;;;;;52.43;37.10;;;7.00;97.90;;;;;;5003084;28;20075;-72
2021/04/30 03:43:05;;;;;;;52.03;36.77;;;7.10;97.90;;;;;;5001781;28;20047;-72
2021/04/30 03:45:31;;;;;;;55.33;38.70;;;7.00;97.90;;;;;;5011913;28;20039;-72
2021/04/30 03:47:57;;;;;;;56.63;38.57;;;7.00;97.90;;;;;;5018162;28;20042;-72
2021/04/30 03:50:24;;;;;;;57.30;39.07;;;7.00;97.90;;;;;;5017824;28;20111;-72
2021/04/30 03:52:50;;;;;;;57.63;39.17;;;7.10;98.00;;;;;;5016196;28;20113;-72
2021/04/30 03:55:16;;;;;;;61.10;40.63;;;7.00;98.00;;;;;;4999176;28;20151;-72
2021/04/30 03:57:42;;;;;;;55.03;39.73;;;7.10;98.00;;;;;;4993783;28;20045;-72
2021/04/30 04:00:08;;;;;;;64.57;41.83;;;7.00;98.00;;;;;;5024427;28;20175;-72
2021/04/30 04:02:34;;;;;;;65.40;42.10;;;7.10;98.10;;;;;;5020989;28;20053;-72
2021/04/30 04:05:00;;;;;;;61.23;41.00;;;7.00;98.10;;;;;;5016123;28;20041;-72
2021/04/30 04:07:26;;;;;;;59.37;41.87;;;7.00;98.10;;;;;;5000095;28;20184;-72
2021/04/30 04:09:52;;;;;;;60.00;40.90;;;7.00;98.20;;;;;;5000974;28;20046;-72
2021/04/30 04:12:18;;;;;;;60.00;40.37;;;7.10;98.30;;;;;;5001624;28;20033;-72
2021/04/30 04:14:44;;;;;;;61.53;41.67;;;7.10;98.30;;;;;;4996700;28;20074;-72
2021/04/30 04:17:12;;;;;;;51.23;34.90;;;7.10;98.30;;;;;;5024366;28;20412;-72
2021/04/30 04:19:38;;;;;;;47.13;36.43;;;7.10;98.30;;;;;;5024338;28;20041;-72
2021/04/30 04:22:04;;;;;;;61.90;41.10;;;7.20;98.30;;;;;;5010668;28;20428;-72
2021/04/30 04:24:30;;;;;;;86.13;43.23;;;7.10;98.30;;;;;;5019734;28;20050;-72
2021/04/30 04:26:56;;;;;;;72.43;41.63;;;7.10;98.40;;;;;;5016243;28;20858;-72
2021/04/30 04:29:21;;;;;;;64.77;42.77;;;7.10;98.40;;;;;;5018136;28;20041;-72
2021/04/30 04:31:47;;;;;;;75.00;42.10;;;7.10;98.40;;;;;;4991309;28;20049;-72
2021/04/30 04:34:14;;;;;;;59.20;40.87;;;7.10;98.40;;;;;;5016547;28;20125;-72
2021/04/30 04:36:40;;;;;;;72.07;41.10;;;7.10;98.40;;;;;;5003597;28;20072;-72
2021/04/30 04:39:08;;;;;;;68.33;40.87;;;7.10;98.40;;;;;;5016530;28;20069;-72
2021/04/30 04:41:34;;;;;;;68.93;41.80;;;7.20;98.50;;;;;;5021347;28;20562;-72
2021/04/30 04:44:01;;;;;;;81.67;43.07;;;7.20;98.40;;;;;;5004000;28;20504;-72
2021/04/30 04:46:26;;;;;;;69.30;44.03;;;7.10;98.40;;;;;;5019619;28;20441;-72
2021/04/30 04:48:52;;;;;;;79.93;45.23;;;7.20;98.40;;;;;;4982367;28;20414;-72
2021/04/30 04:51:18;;;;;;;72.07;42.17;;;7.20;98.40;;;;;;5007400;28;20577;-72
2021/04/30 04:53:48;;;;;;;70.20;43.03;;;7.30;98.50;;;;;;5018314;28;20071;-72
2021/04/30 04:56:14;;;;;;;75.73;44.23;;;7.30;98.40;;;;;;4992392;28;20548;-72
2021/04/30 04:58:39;;;;;;;69.93;43.10;;;7.30;98.40;;;;;;5004167;28;20037;-72
2021/04/30 05:01:06;;;;;;;79.60;46.33;;;7.30;98.40;;;;;;5027867;28;20550;-72
2021/04/30 05:03:34;;;;;;;77.53;44.20;;;7.30;98.40;;;;;;4998040;28;20065;-72
2021/04/30 05:06:00;;;;;;;75.73;45.93;;;7.40;98.50;;;;;;5007859;28;20492;-72
2021/04/30 05:08:26;;;;;;;70.10;44.43;;;7.40;98.50;;;;;;5020912;28;20548;-72
2021/04/30 05:10:52;;;;;;;63.13;42.97;;;7.40;98.50;;;;;;5011698;28;20572;-72
2021/04/30 05:13:21;;;;;;;60.40;42.17;;;7.40;98.50;;;;;;5019923;28;20052;-73
2021/04/30 05:15:46;;;;;;;62.90;42.50;;;7.50;98.50;;;;;;4983341;28;20058;-72
2021/04/30 05:18:13;;;;;;;72.07;43.77;;;7.50;98.50;;;;;;4981803;28;20042;-72
2021/04/30 05:20:38;;;;;;;73.93;45.10;;;7.50;98.50;;;;;;5017835;28;20060;-72
2021/04/30 05:23:04;;;;;;;66.93;43.73;;;7.60;98.50;;;;;;5020048;28;20485;-72
2021/04/30 05:25:30;;;;;;;60.60;41.17;;;7.60;98.50;;;;;;5008664;28;20099;-72
2021/04/30 05:27:56;;;;;;;63.00;42.60;;;7.60;98.50;;;;;;5007957;28;20928;-72
2021/04/30 05:30:22;;;;;;;66.77;41.10;;;7.60;98.50;;;;;;5022294;28;20041;-73
2021/04/30 05:32:48;;;;;;;52.33;36.27;;;7.70;98.60;;;;;;5002589;28;20125;-72
2021/04/30 05:35:14;;;;;;;80.63;44.93;;;7.70;98.60;;;;;;5006443;28;20128;-72
2021/04/30 05:37:40;;;;;;;56.13;39.07;;;7.80;98.60;;;;;;5040639;28;20602;-72
2021/04/30 05:40:09;;;;;;;62.33;41.50;;;7.80;98.50;;;;;;5015837;28;20046;-72
2021/04/30 05:42:35;;;;;;;58.83;39.93;;;7.90;98.50;;;;;;5020033;28;20539;-72
2021/04/30 05:45:01;;;;;;;62.33;39.17;;;7.80;98.50;;;;;;5000265;28;20057;-73
2021/04/30 05:47:33;;;;;;;62.67;39.37;;;7.90;98.40;;;;;;5012674;28;20734;-72
2021/04/30 05:49:59;;;;;;;49.30;35.87;;;7.90;98.40;;;;;;5027514;28;20045;-72
2021/04/30 05:52:26;;;;;;;52.20;38.90;;;7.90;98.40;;;;;;5002380;28;20038;-72
2021/04/30 05:54:55;;;;;;;54.30;37.57;;;7.90;98.40;;;;;;5011600;28;20068;-72
2021/04/30 05:57:21;;;;;;;69.00;41.13;;;8.00;98.40;;;;;;4998146;28;20459;-72
2021/04/30 05:59:47;;;;;;;62.57;42.30;;;7.90;98.40;;;;;;5011744;28;20115;-72
2021/04/30 06:02:13;;;;;;;50.50;36.50;;;8.00;98.50;;;;;;5004080;28;20036;-72
2021/04/30 06:04:39;;;;;;;64.70;39.57;;;8.00;98.40;;;;;;5006260;28;20069;-72
2021/04/30 06:07:05;;;;;;;62.67;41.27;;;8.00;98.40;;;;;;5016402;28;20034;-72
2021/04/30 06:09:31;;;;;;;57.60;37.40;;;8.10;98.40;;;;;;5011803;28;20499;-72
2021/04/30 06:11:56;;;;;;;60.80;38.70;;;8.00;98.40;;;;;;4999317;28;20508;-72
2021/04/30 06:14:29;;;;;;;62.13;39.20;;;8.00;98.40;;;;;;5013091;28;20048;-72
2021/04/30 06:16:56;;;;;;;61.50;35.87;;;8.10;98.50;;;;;;5029159;28;20048;-71
2021/04/30 06:19:21;;;;;;;56.20;36.07;;;8.20;98.40;;;;;;4999728;28;20446;-71
2021/04/30 06:21:47;;;;;;;59.60;37.07;;;8.20;98.40;;;;;;5010534;28;20045;-71
2021/04/30 06:24:13;;;;;;;67.03;38.97;;;8.20;98.40;;;;;;5021726;28;20041;-70
2021/04/30 06:26:39;;;;;;;54.53;35.57;;;8.20;98.40;;;;;;5027720;28;20426;-70
2021/04/30 06:29:11;;;;;;;49.73;37.83;;;8.20;98.40;;;;;;5012310;28;20057;-71
2021/04/30 06:31:38;;;;;;;54.20;35.27;;;8.20;98.50;;;;;;5005181;28;20127;-70
2021/04/30 06:34:05;;;;;;;60.63;35.13;;;8.30;98.50;;;;;;5021484;28;20049;-71
2021/04/30 06:36:32;;;;;;;51.57;36.13;;;8.40;98.40;;;;;;5023048;28;20042;-71
2021/04/30 06:38:58;;;;;;;53.50;35.43;;;8.30;98.40;;;;;;5005316;28;20049;-70
2021/04/30 06:41:24;;;;;;;54.53;33.53;;;8.30;98.40;;;;;;5021288;28;20044;-71
2021/04/30 06:43:50;;;;;;;58.57;34.50;;;8.30;98.40;;;;;;5004802;28;20033;-70
2021/04/30 06:46:16;;;;;;;72.90;38.03;;;8.30;98.40;;;;;;5022961;28;20366;-70
2021/04/30 06:48:42;;;;;;;73.13;36.30;;;8.30;98.40;;;;;;5022153;28;20548;-71
2021/04/30 06:51:08;;;;;;;53.43;33.33;;;8.30;98.40;;;;;;4996562;28;20053;-71
2021/04/30 06:53:34;;;;;;;60.70;38.13;;;8.30;98.40;;;;;;5002589;28;20033;-71
2021/04/30 06:56:01;;;;;;;53.87;33.40;;;8.40;98.50;;;;;;5019044;28;20069;-71
2021/04/30 06:58:26;;;;;;;58.40;35.53;;;8.40;98.50;;;;;;5008149;28;20080;-70
2021/04/30 07:00:52;;;;;;;52.50;33.00;;;8.40;98.40;;;;;;4975074;28;20107;-70
2021/04/30 07:03:18;;;;;;;52.50;33.00;;;8.30;98.40;;;;;;5021890;28;20049;-71
2021/04/30 07:05:44;;;;;;;61.33;35.77;;;8.40;98.50;;;;;;5002123;28;20504;-71
2021/04/30 07:08:10;;;;;;;63.10;37.43;;;8.40;98.20;;;;;;4993161;28;20485;-71
2021/04/30 07:10:36;;;;;;;65.23;37.87;;;8.40;98.20;;;;;;5033248;28;20041;-71
2021/04/30 07:13:13;;;;;;;55.33;34.43;;;8.40;98.30;;;;;;5015539;28;20091;-71
2021/04/30 07:15:39;;;;;;;75.10;39.37;;;8.40;98.40;;;;;;5019382;28;20132;-71
2021/04/30 07:18:05;;;;;;;61.03;36.63;;;8.40;98.30;;;;;;5024354;28;20049;-71
2021/04/30 07:20:35;;;;;;;56.27;33.70;;;8.40;98.40;;;;;;5001337;28;20045;-71
2021/04/30 07:23:04;;;;;;;61.73;36.80;;;8.40;98.40;;;;;;5021849;28;20048;-71
2021/04/30 07:25:30;;;;;;;55.70;34.60;;;8.40;98.40;;;;;;5026865;28;20049;-71
2021/04/30 07:27:56;;;;;;;53.97;34.13;;;8.40;98.40;;;;;;5021838;28;20041;-71
2021/04/30 07:30:22;;;;;;;52.63;31.87;;;8.40;98.40;;;;;;5025227;28;20391;-71
2021/04/30 07:32:49;;;;;;;55.40;32.83;;;8.40;98.40;;;;;;5013086;28;20041;-71
2021/04/30 07:35:15;;;;;;;63.23;38.43;;;8.40;98.40;;;;;;5023043;28;20076;-71
2021/04/30 07:37:41;;;;;;;53.93;34.97;;;8.40;98.40;;;;;;4997421;28;20049;-71
2021/04/30 07:40:11;;;;;;;42.73;32.20;;;8.40;98.50;;;;;;5020426;28;20493;-71
2021/04/30 07:42:37;;;;;;;53.90;34.38;;;8.40;98.50;;;;;;5020234;28;20041;-71
2021/04/30 07:45:07;;;;;;;49.10;31.57;;;8.40;98.50;;;;;;5021921;28;20063;-72
2021/04/30 07:47:32;;;;;;;69.50;34.27;;;8.50;98.50;;;;;;5003541;28;20497;-72
2021/04/30 07:49:58;;;;;;;49.63;32.50;;;8.50;98.50;;;;;;5016128;28;20034;-72
2021/04/30 07:52:24;;;;;;;50.70;30.23;;;8.50;98.60;;;;;;5003604;28;20122;-71
2021/04/30 07:54:50;;;;;;;60.27;33.13;;;8.50;98.50;;;;;;5022191;28;20088;-71
2021/04/30 07:57:17;;;;;;;49.53;30.17;;;8.60;98.50;;;;;;5020410;28;20120;-71
2021/04/30 07:59:42;;;;;;;52.75;32.55;;;8.60;98.50;;;;;;5004680;28;20029;-71
2021/04/30 08:02:09;;;;;;;44.83;28.93;;;8.70;98.50;;;;;;5035947;28;20504;-71
2021/04/30 08:04:35;;;;;;;44.67;28.85;;;8.70;98.50;;;;;;5024136;28;20119;-71
2021/04/30 08:07:02;;;;;;;45.78;30.70;;;8.70;98.40;;;;;;5019174;28;20076;-71
2021/04/30 08:09:28;;;;;;;43.53;28.63;;;8.70;98.30;;;;;;5015137;28;20132;-71
2021/04/30 08:11:54;;;;;;;46.13;28.60;;;8.80;98.30;;;;;;5021214;28;20638;-71
2021/04/30 08:14:20;;;;;;;45.30;28.13;;;8.80;98.30;;;;;;5003380;28;20747;-71
2021/04/30 08:16:46;;;;;;;50.87;32.17;;;8.80;98.20;;;;;;5008054;28;20037;-72
2021/04/30 08:19:12;;;;;;;42.92;27.23;;;8.90;98.10;;;;;;5021165;28;20121;-72
2021/04/30 08:21:38;;;;;;;36.72;24.52;;;8.90;98.00;;;;;;4987058;28;20944;-71
2021/04/30 08:24:04;;;;;;;32.83;24.07;;;8.90;97.90;;;;;;5034462;28;20116;-70
2021/04/30 08:26:30;;;;;;;31.27;21.85;;;9.00;97.90;;;;;;5017344;28;20029;-70
2021/04/30 08:28:56;;;;;;;30.92;21.67;;;9.10;97.80;;;;;;5020807;28;20033;-70
2021/04/30 08:31:23;;;;;;;35.78;24.88;;;9.10;97.50;;;;;;5019484;28;20119;-70
2021/04/30 08:33:50;;;;;;;36.00;24.92;;;9.10;97.50;;;;;;5000290;28;20481;-70
2021/04/30 08:36:16;;;;;;;27.73;21.07;;;9.20;97.30;;;;;;5004149;28;20110;-70
2021/04/30 08:38:43;;;;;;;28.13;20.13;;;9.30;97.30;;;;;;5021923;28;20041;-70
2021/04/30 08:41:09;;;;;;;21.93;17.37;;;9.30;97.10;;;;;;5022437;28;20107;-71
2021/04/30 08:43:40;;;;;;;22.20;17.00;;;9.30;96.60;;;;;;5000454;28;20091;-70
2021/04/30 08:46:06;;;;;;;24.30;19.13;;;9.40;96.60;;;;;;5022826;28;20037;-70
2021/04/30 08:48:33;;;;;;;19.58;13.80;;;9.40;96.50;;;;;;5003557;28;20188;-70
2021/04/30 08:51:00;;;;;;;15.65;13.15;;;9.50;95.90;;;;;;5021438;28;20041;-70
2021/04/30 08:53:27;;;;;;;23.50;15.55;;;9.40;95.20;;;;;;5016061;28;20041;-71
2021/04/30 08:55:53;;;;;;;19.58;14.20;;;9.40;95.10;;;;;;5020530;28;20080;-70
2021/04/30 08:58:30;;;;;;;21.25;15.88;;;9.40;94.90;;;;;;5037468;28;20045;-70
2021/04/30 09:00:57;;;;;;;20.00;15.57;;;9.40;94.60;;;;;;5023051;28;20512;-72
2021/04/30 09:03:23;;;;;;;20.77;16.38;;;9.40;94.50;;;;;;5023895;28;20033;-73
2021/04/30 09:05:56;;;;;;;24.58;17.88;;;9.50;94.50;;;;;;5015279;28;20053;-72
2021/04/30 09:08:26;;;;;;;23.92;18.80;;;9.60;94.40;;;;;;5030151;28;20466;-73
2021/04/30 09:10:56;;;;;;;26.08;20.40;;;9.70;94.60;;;;;;5031459;28;20033;-73
2021/04/30 09:13:23;;;;;;;25.75;17.98;;;9.90;94.80;;;;;;5024274;28;20120;-73
2021/04/30 09:16:04;;;;;;;21.50;14.77;;;10.10;94.60;;;;;;5024285;28;20468;-72
2021/04/30 09:18:33;;;;;;;18.92;15.15;;;10.40;93.50;;;;;;5022640;28;20805;-73
2021/04/30 09:21:08;;;;;;;20.92;15.55;;;10.60;93.20;;;;;;5040681;28;20041;-73
2021/04/30 09:23:42;;;;;;;19.65;14.95;;;10.70;93.00;;;;;;5019506;28;20049;-72
2021/04/30 09:26:28;;;;;;;18.85;13.73;;;10.90;92.70;;;;;;5005902;28;20048;-73
2021/04/30 09:29:05;;;;;;;16.48;12.93;;;11.00;92.30;;;;;;5025103;28;20045;-70
2021/04/30 09:31:36;;;;;;;19.85;13.60;;;11.10;92.10;;;;;;5020109;28;20034;-71
2021/04/30 09:34:15;;;;;;;14.30;11.80;;;11.20;92.00;;;;;;5022836;28;20049;-70
2021/04/30 09:37:17;;;;;;;13.63;12.23;;;11.10;90.80;;;;;;5020952;28;20065;-71
2021/04/30 09:39:52;;;;;;;16.20;13.50;;;11.10;90.80;;;;;;4978914;28;20057;-71
2021/04/30 09:42:20;;;;;;;15.95;13.20;;;11.00;90.80;;;;;;5018033;28;20064;-71
2021/04/30 09:44:49;;;;;;;20.63;15.25;;;11.00;90.90;;;;;;5003197;28;20131;-71
2021/04/30 09:47:27;;;;;;;18.17;14.33;;;10.90;91.00;;;;;;5005008;28;20049;-71
2021/04/30 09:49:56;;;;;;;21.15;15.93;;;10.90;91.00;;;;;;5017185;28;20041;-72
2021/04/30 09:52:23;;;;;;;19.27;15.88;;;10.90;90.50;;;;;;5040127;28;20513;-72
2021/04/30 09:54:50;;;;;;;20.50;15.95;;;11.00;90.70;;;;;;5007766;28;20064;-71
2021/04/30 09:57:23;;;;;;;24.95;17.08;;;10.90;90.90;;;;;;5024125;28;20033;-71
2021/04/30 09:59:59;;;;;;;20.92;15.57;;;11.00;91.10;;;;;;5023340;28;20059;-71
2021/04/30 10:02:30;;;;;;;21.83;16.42;;;11.10;90.60;;;;;;5019429;28;20065;-71
2021/04/30 10:04:58;;;;;;;22.83;17.27;;;11.10;90.40;;;;;;5024692;28;20037;-71
2021/04/30 10:07:31;;;;;;;19.08;15.15;;;11.00;90.00;;;;;;5031002;28;20565;-70
2021/04/30 10:10:20;;;;;;;22.73;17.20;;;11.10;90.00;;;;;;5025323;28;20049;-71
2021/04/30 10:12:48;;;;;;;25.33;17.98;;;11.10;90.10;;;;;;5021035;28;20865;-71
2021/04/30 10:15:21;;;;;;;23.55;15.68;;;11.10;90.60;;;;;;5009087;28;20056;-71
2021/04/30 10:17:49;;;;;;;20.23;15.50;;;11.20;90.20;;;;;;5019816;28;20044;-71
2021/04/30 10:20:16;;;;;;;24.42;19.70;;;11.20;90.40;;;;;;5038695;28;20523;-71
2021/04/30 10:22:44;;;;;;;20.33;17.05;;;11.30;90.50;;;;;;5024330;28;20038;-71
2021/04/30 10:25:14;;;;;;;19.48;16.95;;;11.30;90.80;;;;;;5027909;28;20046;-71
2021/04/30 10:27:42;;;;;;;17.13;14.52;;;11.40;90.20;;;;;;5023151;28;20041;-70
2021/04/30 10:30:15;;;;;;;18.27;14.48;;;11.40;86.50;;;;;;5033886;28;20176;-71
2021/04/30 10:32:56;;;;;;;18.48;14.65;;;11.40;84.20;;;;;;5022804;28;20041;-71
2021/04/30 10:35:39;;;;;;;18.40;15.85;;;11.30;86.30;;;;;;5024969;28;20068;-72
2021/04/30 10:38:08;;;;;;;20.70;15.93;;;11.40;87.70;;;;;;5024822;28;20064;-72
2021/04/30 10:40:35;;;;;;;18.70;15.23;;;11.40;87.90;;;;;;5030928;28;20044;-72
2021/04/30 10:43:22;;;;;;;21.30;16.92;;;11.50;85.80;;;;;;5007538;28;20049;-72
2021/04/30 10:46:21;;;;;;;18.40;16.25;;;11.50;86.60;;;;;;5015127;28;20088;-72
2021/04/30 10:49:21;;;;;;;19.50;16.23;;;11.50;87.30;;;;;;4983292;28;20099;-71
2021/04/30 10:52:06;;;;;;;21.35;17.17;;;11.70;86.80;;;;;;5024356;28;20148;-72
2021/04/30 10:54:36;;;;;;;19.25;15.50;;;11.80;84.10;;;;;;5020856;28;20505;-72
2021/04/30 10:57:06;;;;;;;20.17;15.63;;;11.70;84.60;;;;;;5021131;28;20045;-72
2021/04/30 10:59:40;;;;;;;19.73;15.07;;;11.70;83.90;;;;;;5002747;28;20068;-72
2021/04/30 11:02:22;;;;;;;17.92;15.95;;;11.80;84.80;;;;;;5024184;28;20084;-72
2021/04/30 11:05:03;;;;;;;20.50;17.92;;;11.90;84.40;;;;;;5022190;28;20065;-72
2021/04/30 11:07:30;;;;;;;20.52;18.08;;;12.10;83.90;;;;;;5011309;28;20084;-72
2021/04/30 11:09:56;;;;;;;18.50;15.85;;;12.40;85.70;;;;;;5003471;28;20310;-71
2021/04/30 11:12:27;;;;;;;21.30;16.10;;;12.60;84.20;;;;;;5022207;28;20387;-72
2021/04/30 11:15:03;;;;;;;24.70;17.98;;;12.60;83.30;;;;;;5020802;28;20037;-72
2021/04/30 11:17:47;;;;;;;18.75;16.75;;;12.60;83.10;;;;;;5020357;28;20072;-72
2021/04/30 11:20:17;;;;;;;20.55;15.07;;;12.60;82.20;;;;;;5022177;28;20046;-72
2021/04/30 11:23:22;;;;;;;16.95;15.18;;;12.60;82.30;;;;;;5022458;28;20072;-72
2021/04/30 11:26:00;;;;;;;18.27;16.35;;;12.50;81.10;;;;;;5023305;28;20504;-74
2021/04/30 11:28:34;;;;;;;17.85;15.20;;;12.50;81.30;;;;;;5013392;28;20041;-73
2021/04/30 11:31:05;;;;;;;18.80;14.90;;;12.50;80.90;;;;;;5023463;28;20034;-74
2021/04/30 11:34:15;;;;;;;19.75;16.13;;;12.40;80.60;;;;;;5016678;28;20048;-74
2021/04/30 11:36:43;;;;;;;19.88;15.10;;;12.40;80.00;;;;;;5016543;28;20095;-74
2021/04/30 11:39:26;;;;;;;18.10;16.10;;;12.30;80.80;;;;;;5041592;28;20057;-74
2021/04/30 11:41:57;;;;;;;18.65;15.18;;;12.30;78.70;;;;;;5022344;28;20045;-73
2021/04/30 11:44:23;;;;;;;17.80;15.88;;;12.40;76.80;;;;;;5023630;28;20047;-72
2021/04/30 11:47:01;;;;;;;17.73;15.98;;;12.40;75.40;;;;;;5004542;28;20041;-73
2021/04/30 11:49:27;;;;;;;18.65;15.25;;;12.30;77.10;;;;;;5021849;28;20405;-73
2021/04/30 11:51:53;;;;;;;18.75;15.63;;;12.30;77.40;;;;;;5021244;28;20136;-74
2021/04/30 11:54:25;;;;;;;16.92;15.20;;;12.30;76.50;;;;;;5007029;28;20545;-74
2021/04/30 11:57:02;;;;;;;18.30;15.35;;;12.30;77.00;;;;;;5020002;28;20042;-74
2021/04/30 11:59:28;;;;;;;17.63;14.98;;;12.20;77.20;;;;;;5022165;28;20115;-74
2021/04/30 12:01:57;;;;;;;17.38;15.20;;;12.20;77.90;;;;;;5034759;28;20045;-74
2021/04/30 12:04:43;;;;;;;17.77;14.60;;;12.10;77.90;;;;;;5012394;28;20072;-74
2021/04/30 12:07:13;;;;;;;16.35;14.70;;;12.10;78.50;;;;;;5022821;28;20080;-73
2021/04/30 12:09:39;;;;;;;19.73;15.55;;;12.00;76.60;;;;;;5012027;28;20149;-74
2021/04/30 12:12:15;;;;;;;16.45;14.77;;;12.00;77.60;;;;;;5004895;28;20046;-74
2021/04/30 12:14:47;;;;;;;19.50;16.58;;;12.00;77.60;;;;;;5018182;28;20487;-74
2021/04/30 12:17:20;;;;;;;16.20;14.50;;;11.90;78.90;;;;;;5020100;28;20045;-74
2021/04/30 12:19:56;;;;;;;21.90;16.05;;;11.90;77.80;;;;;;5023959;28;20519;-74
2021/04/30 12:22:22;;;;;;;16.35;14.57;;;11.90;78.60;;;;;;5024033;28;20092;-74
2021/04/30 12:24:48;;;;;;;19.77;15.55;;;11.90;78.40;;;;;;5024157;28;20038;-74
2021/04/30 12:27:30;;;;;;;21.25;15.63;;;11.90;78.50;;;;;;5036382;28;20037;-74
2021/04/30 12:29:56;;;;;;;18.58;13.82;;;11.80;78.00;;;;;;5020455;28;20049;-74
2021/04/30 12:32:27;;;;;;;17.02;15.20;;;11.80;78.60;;;;;;5026242;28;20045;-74
2021/04/30 12:34:56;;;;;;;17.17;14.95;;;11.70;79.30;;;;;;5002975;28;20698;-74
2021/04/30 12:37:23;;;;;;;18.17;16.13;;;11.70;80.10;;;;;;5006187;28;20079;-75
2021/04/30 12:39:49;;;;;;;16.60;14.68;;;11.80;80.00;;;;;;5038348;28;20116;-75
2021/04/30 12:42:15;;;;;;;18.65;14.25;;;11.70;79.60;;;;;;5003165;28;20469;-74